Time;durP1;ratioP1;P1;durP2;ratioP2;P2;SDS_P1;SDS_P2;PMS_P1;PMS_P2;Temp;Humidity;BMP_temperature;BMP_pressure;BME280_temperature;BME280_humidity;BME280_pressure;Samples;Min_cycle;Max_cycle;Signal;HPM_P1;HPM_P2
2023/05/28 00:00:50;;;;;;;15.05;8.05;;;13.00;62.20;;;;;;5010923;28;20200;-88
2023/05/28 00:03:21;;;;;;;9.38;6.07;;;13.00;63.00;;;;;;5001821;28;20263;-86
2023/05/28 00:05:49;;;;;;;10.48;5.50;;;13.10;62.10;;;;;;5006043;28;20282;-88
2023/05/28 00:08:16;;;;;;;9.75;5.18;;;13.10;61.80;;;;;;5009922;28;20203;-88
2023/05/28 00:10:43;;;;;;;11.57;5.28;;;13.10;63.50;;;;;;4998104;28;20195;-85
2023/05/28 00:13:10;;;;;;;9.00;5.00;;;13.20;60.90;;;;;;5024928;28;20575;-87
2023/05/28 00:15:38;;;;;;;9.10;4.72;;;13.10;61.90;;;;;;5021030;28;20222;-87
2023/05/28 00:18:05;;;;;;;9.05;5.38;;;13.10;61.80;;;;;;5016788;28;20226;-86
2023/05/28 00:20:34;;;;;;;13.93;5.03;;;13.10;62.40;;;;;;5007725;28;20550;-88
2023/05/28 00:23:01;;;;;;;13.05;5.22;;;13.10;61.90;;;;;;4992959;28;20561;-89
2023/05/28 00:25:28;;;;;;;11.60;5.10;;;13.10;61.80;;;;;;5006271;28;20293;-88
2023/05/28 00:27:55;;;;;;;8.88;5.10;;;13.20;61.00;;;;;;5004534;28;20197;-85
2023/05/28 00:30:23;;;;;;;8.43;4.53;;;13.20;60.30;;;;;;5009876;28;20224;-89
2023/05/28 00:32:50;;;;;;;11.10;4.95;;;13.00;61.30;;;;;;5006242;28;20214;-88
2023/05/28 00:35:17;;;;;;;12.88;4.80;;;12.90;62.00;;;;;;5013646;28;20226;-84
2023/05/28 00:40:54;;;;;;;10.65;5.20;;;12.90;61.50;;;;;;5109806;27;1306822;-88
2023/05/28 00:43:21;;;;;;;10.13;4.97;;;12.90;62.00;;;;;;5131174;28;20207;-87
2023/05/28 00:45:53;;;;;;;10.60;4.72;;;12.80;61.80;;;;;;5113625;28;20789;-87
2023/05/28 00:48:26;;;;;;;8.18;4.85;;;12.80;61.50;;;;;;5131801;28;20285;-85
2023/05/28 00:50:54;;;;;;;7.97;4.78;;;12.80;62.20;;;;;;5120601;28;20192;-87
2023/05/28 00:53:21;;;;;;;8.00;5.00;;;12.80;62.90;;;;;;5131591;28;20631;-88
2023/05/28 00:55:55;;;;;;;10.07;4.68;;;12.70;62.00;;;;;;5123431;28;20199;-87
2023/05/28 00:58:23;;;;;;;11.73;5.00;;;12.70;63.50;;;;;;5100916;28;20726;-87
2023/05/28 01:00:50;;;;;;;13.45;5.22;;;12.70;64.10;;;;;;5109477;28;20225;-87
2023/05/28 01:03:17;;;;;;;7.32;4.78;;;12.70;63.40;;;;;;5125753;28;20199;-88
2023/05/28 01:05:45;;;;;;;7.30;4.40;;;12.60;64.40;;;;;;5131249;28;20271;-89
2023/05/28 01:08:12;;;;;;;10.35;5.00;;;12.60;64.40;;;;;;5113033;28;20343;-84
2023/05/28 01:10:39;;;;;;;9.90;4.80;;;12.60;65.80;;;;;;5112809;28;20592;-86
2023/05/28 01:13:09;;;;;;;11.80;5.07;;;12.50;67.40;;;;;;5126184;28;20204;-88
2023/05/28 01:15:37;;;;;;;11.75;5.25;;;12.50;67.80;;;;;;5130993;28;20649;-88
2023/05/28 01:18:06;;;;;;;11.32;5.60;;;12.40;68.10;;;;;;5122028;28;20215;-86
2023/05/28 01:20:35;;;;;;;13.30;5.70;;;12.30;69.60;;;;;;5092529;28;20227;-89
2023/05/28 01:23:15;;;;;;;9.70;5.15;;;12.20;72.10;;;;;;5088556;28;20212;-85
2023/05/28 01:25:46;;;;;;;11.82;5.00;;;12.20;73.60;;;;;;5104272;28;20196;-87
2023/05/28 01:28:17;;;;;;;10.07;5.10;;;12.20;75.30;;;;;;5089816;28;20622;-85
2023/05/28 01:30:45;;;;;;;10.68;5.18;;;12.10;75.20;;;;;;5102463;28;20604;-87
2023/05/28 01:33:13;;;;;;;7.82;4.90;;;12.00;75.20;;;;;;5106125;28;20228;-85
2023/05/28 01:35:40;;;;;;;8.15;4.70;;;12.00;75.10;;;;;;5109965;28;20570;-89
2023/05/28 01:38:10;;;;;;;9.27;4.75;;;12.00;75.60;;;;;;5110030;28;20260;-86
2023/05/28 01:40:39;;;;;;;8.50;5.00;;;11.90;76.10;;;;;;5076435;28;20261;-86
2023/05/28 01:43:08;;;;;;;9.50;4.90;;;11.90;77.20;;;;;;5085905;28;20200;-87
2023/05/28 01:45:35;;;;;;;12.95;5.32;;;11.80;76.70;;;;;;5076571;28;20203;-84
2023/05/28 01:48:03;;;;;;;9.35;4.97;;;11.70;77.50;;;;;;5109766;28;20203;-85
2023/05/28 01:50:32;;;;;;;8.43;4.88;;;11.70;78.30;;;;;;5093948;28;20279;-88
2023/05/28 01:53:01;;;;;;;8.57;5.15;;;11.60;78.50;;;;;;5068785;28;20235;-85
2023/05/28 01:55:28;;;;;;;11.43;5.45;;;11.60;78.70;;;;;;5083949;28;20660;-86
2023/05/28 01:57:56;;;;;;;13.55;5.93;;;11.70;78.20;;;;;;5067176;28;20345;-86
2023/05/28 02:00:25;;;;;;;11.00;5.40;;;11.70;78.00;;;;;;5096482;28;20232;-84
2023/05/28 02:02:53;;;;;;;8.77;5.20;;;11.70;78.10;;;;;;5091193;28;20189;-87
2023/05/28 02:05:20;;;;;;;10.02;5.25;;;11.70;77.30;;;;;;5064391;28;20608;-88
2023/05/28 02:07:50;;;;;;;10.52;5.13;;;11.70;77.00;;;;;;5095280;28;20291;-84
2023/05/28 02:10:17;;;;;;;9.35;5.05;;;11.80;76.30;;;;;;5095118;28;20260;-88
2023/05/28 02:12:44;;;;;;;11.23;5.35;;;11.80;76.40;;;;;;5081972;28;20325;-85
2023/05/28 02:15:12;;;;;;;9.30;4.90;;;11.80;76.90;;;;;;5096148;28;20231;-85
2023/05/28 02:17:43;;;;;;;12.90;5.40;;;11.80;77.80;;;;;;5086251;28;20248;-86
2023/05/28 02:20:12;;;;;;;8.15;5.35;;;11.80;77.40;;;;;;5086093;28;20224;-87
2023/05/28 02:22:39;;;;;;;9.05;5.28;;;11.80;78.10;;;;;;5079391;28;20219;-87
2023/05/28 02:25:07;;;;;;;8.82;4.93;;;11.70;79.70;;;;;;5066639;28;20262;-86
2023/05/28 02:27:35;;;;;;;10.73;5.15;;;11.70;79.90;;;;;;5077150;28;20241;-86
2023/05/28 02:30:03;;;;;;;10.73;5.72;;;11.70;79.60;;;;;;5070714;28;20209;-87
2023/05/28 02:32:30;;;;;;;8.55;5.30;;;11.70;80.20;;;;;;5058023;28;20629;-88
2023/05/28 02:34:59;;;;;;;8.60;5.03;;;11.60;80.90;;;;;;5092579;28;20197;-85
2023/05/28 02:37:26;;;;;;;11.05;5.65;;;11.50;81.40;;;;;;5076917;28;20193;-86
2023/05/28 02:39:54;;;;;;;9.32;5.20;;;11.40;82.60;;;;;;5089330;28;20265;-84
2023/05/28 02:42:24;;;;;;;11.98;5.35;;;11.30;83.50;;;;;;5071393;28;20215;-84
2023/05/28 02:44:51;;;;;;;8.27;5.43;;;11.20;84.20;;;;;;5067118;28;20197;-85
2023/05/28 02:47:19;;;;;;;11.25;5.35;;;11.10;85.30;;;;;;5075990;28;20197;-88
2023/05/28 02:49:46;;;;;;;10.05;5.70;;;11.00;86.30;;;;;;5074204;28;20205;-87
2023/05/28 02:52:15;;;;;;;11.25;5.97;;;11.00;87.20;;;;;;5063545;28;20201;-84
2023/05/28 02:54:42;;;;;;;9.82;5.13;;;10.90;88.10;;;;;;5094690;28;20801;-87
2023/05/28 02:57:09;;;;;;;10.50;5.32;;;10.90;88.30;;;;;;5095202;28;20657;-88
2023/05/28 02:59:39;;;;;;;10.63;5.88;;;10.80;89.10;;;;;;5095445;28;20647;-86
2023/05/28 03:02:06;;;;;;;9.98;5.40;;;10.80;89.10;;;;;;5079815;28;20204;-87
2023/05/28 03:04:35;;;;;;;9.18;5.53;;;10.80;89.60;;;;;;5077272;28;20208;-85
2023/05/28 03:07:02;;;;;;;11.40;5.53;;;10.80;90.10;;;;;;5094804;28;20288;-85
2023/05/28 03:09:44;;;;;;;10.38;5.68;;;10.80;90.20;;;;;;5090331;28;20250;-84
2023/05/28 03:12:11;;;;;;;11.75;5.32;;;10.90;90.00;;;;;;5049610;28;20201;-87
2023/05/28 03:14:39;;;;;;;9.95;5.53;;;11.00;90.20;;;;;;5062115;28;20200;-86
2023/05/28 03:17:06;;;;;;;11.40;5.75;;;11.10;88.60;;;;;;5095374;28;20192;-88
2023/05/28 03:19:36;;;;;;;9.18;5.70;;;11.00;89.00;;;;;;5095004;28;20718;-85
2023/05/28 03:22:03;;;;;;;10.48;5.47;;;11.00;89.70;;;;;;5088761;28;20197;-85
2023/05/28 03:24:31;;;;;;;10.27;5.50;;;11.00;89.10;;;;;;5086469;28;20664;-84
2023/05/28 03:27:01;;;;;;;11.65;5.50;;;10.90;89.90;;;;;;5090218;28;20201;-87
2023/05/28 03:29:28;;;;;;;10.13;5.20;;;10.90;89.90;;;;;;5078373;28;20193;-87
2023/05/28 03:31:56;;;;;;;10.55;5.30;;;10.70;90.10;;;;;;5094361;28;20199;-87
2023/05/28 03:34:23;;;;;;;10.90;5.55;;;10.70;90.40;;;;;;5095422;28;20209;-85
2023/05/28 03:36:50;;;;;;;9.30;5.45;;;10.80;90.50;;;;;;5081566;28;20622;-82
2023/05/28 03:39:19;;;;;;;10.00;5.65;;;10.70;90.40;;;;;;5066673;28;20302;-85
2023/05/28 03:41:48;;;;;;;9.57;5.80;;;10.70;90.40;;;;;;5049260;28;20214;-87
2023/05/28 03:44:17;;;;;;;13.30;5.88;;;10.70;90.50;;;;;;5090362;28;20646;-86
